sensor_id;sensor_type;location;lat;lon;timestamp;P1;durP1;ratioP1;P2;durP2;ratioP2
25127;SDS011;13107;51.304;6.866;2023-09-30T00:03:50;8.60;;;2.92;;
25127;SDS011;13107;51.304;6.866;2023-09-30T00:07:52;8.10;;;3.03;;
25127;SDS011;13107;51.304;6.866;2023-09-30T00:11:54;6.00;;;2.80;;
25127;SDS011;13107;51.304;6.866;2023-09-30T00:15:56;8.20;;;2.95;;
25127;SDS011;13107;51.304;6.866;2023-09-30T00:19:58;9.07;;;2.70;;
25127;SDS011;13107;51.304;6.866;2023-09-30T00:24:00;12.43;;;3.35;;
25127;SDS011;13107;51.304;6.866;2023-09-30T00:28:02;7.75;;;3.10;;
25127;SDS011;13107;51.304;6.866;2023-09-30T00:32:04;8.82;;;3.30;;
25127;SDS011;13107;51.304;6.866;2023-09-30T00:36:07;8.85;;;3.05;;
25127;SDS011;13107;51.304;6.866;2023-09-30T00:40:10;10.00;;;3.87;;
25127;SDS011;13107;51.304;6.866;2023-09-30T00:44:13;6.87;;;3.33;;
25127;SDS011;13107;51.304;6.866;2023-09-30T00:48:15;10.13;;;3.42;;
25127;SDS011;13107;51.304;6.866;2023-09-30T00:52:17;11.68;;;3.70;;
25127;SDS011;13107;51.304;6.866;2023-09-30T00:56:20;6.05;;;3.05;;
25127;SDS011;13107;51.304;6.866;2023-09-30T01:00:24;7.32;;;3.22;;
25127;SDS011;13107;51.304;6.866;2023-09-30T01:04:27;7.30;;;2.90;;
25127;SDS011;13107;51.304;6.866;2023-09-30T01:08:29;8.05;;;3.50;;
25127;SDS011;13107;51.304;6.866;2023-09-30T01:12:31;7.20;;;3.37;;
25127;SDS011;13107;51.304;6.866;2023-09-30T01:16:33;7.35;;;3.08;;
25127;SDS011;13107;51.304;6.866;2023-09-30T01:20:35;9.18;;;3.20;;
25127;SDS011;13107;51.304;6.866;2023-09-30T01:24:38;9.70;;;3.40;;
25127;SDS011;13107;51.304;6.866;2023-09-30T01:28:41;14.43;;;4.05;;
25127;SDS011;13107;51.304;6.866;2023-09-30T01:32:43;10.88;;;4.15;;
25127;SDS011;13107;51.304;6.866;2023-09-30T01:36:45;10.55;;;3.50;;
25127;SDS011;13107;51.304;6.866;2023-09-30T01:40:48;13.98;;;4.30;;
25127;SDS011;13107;51.304;6.866;2023-09-30T01:44:50;8.80;;;3.60;;
25127;SDS011;13107;51.304;6.866;2023-09-30T01:48:52;10.60;;;3.87;;
25127;SDS011;13107;51.304;6.866;2023-09-30T01:52:53;9.98;;;3.28;;
25127;SDS011;13107;51.304;6.866;2023-09-30T01:56:55;6.72;;;3.03;;
25127;SDS011;13107;51.304;6.866;2023-09-30T02:01:03;6.53;;;3.47;;
25127;SDS011;13107;51.304;6.866;2023-09-30T02:05:05;10.57;;;3.65;;
25127;SDS011;13107;51.304;6.866;2023-09-30T02:09:09;6.90;;;2.87;;
25127;SDS011;13107;51.304;6.866;2023-09-30T02:13:11;9.35;;;3.10;;
25127;SDS011;13107;51.304;6.866;2023-09-30T02:17:12;7.18;;;3.00;;
25127;SDS011;13107;51.304;6.866;2023-09-30T02:21:14;8.23;;;3.35;;
25127;SDS011;13107;51.304;6.866;2023-09-30T02:25:16;8.30;;;3.55;;
25127;SDS011;13107;51.304;6.866;2023-09-30T02:29:32;13.10;;;3.60;;
25127;SDS011;13107;51.304;6.866;2023-09-30T02:33:34;7.47;;;2.95;;
25127;SDS011;13107;51.304;6.866;2023-09-30T02:37:40;8.77;;;3.05;;
25127;SDS011;13107;51.304;6.866;2023-09-30T02:41:42;9.98;;;2.92;;
25127;SDS011;13107;51.304;6.866;2023-09-30T02:45:44;10.77;;;3.37;;
25127;SDS011;13107;51.304;6.866;2023-09-30T02:49:46;8.93;;;2.72;;
25127;SDS011;13107;51.304;6.866;2023-09-30T02:53:48;8.15;;;2.92;;
25127;SDS011;13107;51.304;6.866;2023-09-30T02:57:49;8.65;;;2.83;;
25127;SDS011;13107;51.304;6.866;2023-09-30T03:01:51;9.40;;;2.80;;
25127;SDS011;13107;51.304;6.866;2023-09-30T03:05:53;9.07;;;3.03;;
25127;SDS011;13107;51.304;6.866;2023-09-30T03:09:55;9.63;;;2.90;;
25127;SDS011;13107;51.304;6.866;2023-09-30T03:13:57;7.85;;;2.75;;
25127;SDS011;13107;51.304;6.866;2023-09-30T03:17:59;9.18;;;3.15;;
25127;SDS011;13107;51.304;6.866;2023-09-30T03:22:01;6.72;;;3.10;;
25127;SDS011;13107;51.304;6.866;2023-09-30T03:26:06;8.68;;;3.17;;
25127;SDS011;13107;51.304;6.866;2023-09-30T03:30:12;8.90;;;3.92;;
25127;SDS011;13107;51.304;6.866;2023-09-30T03:34:17;7.80;;;3.10;;
25127;SDS011;13107;51.304;6.866;2023-09-30T03:38:19;7.25;;;3.37;;
25127;SDS011;13107;51.304;6.866;2023-09-30T03:42:21;8.23;;;3.65;;
25127;SDS011;13107;51.304;6.866;2023-09-30T03:46:23;11.90;;;3.70;;
25127;SDS011;13107;51.304;6.866;2023-09-30T03:50:25;13.45;;;4.45;;
25127;SDS011;13107;51.304;6.866;2023-09-30T03:54:27;7.78;;;3.58;;
25127;SDS011;13107;51.304;6.866;2023-09-30T03:58:29;11.38;;;4.10;;
25127;SDS011;13107;51.304;6.866;2023-09-30T04:02:30;6.53;;;3.15;;
25127;SDS011;13107;51.304;6.866;2023-09-30T04:06:32;9.73;;;3.25;;
25127;SDS011;13107;51.304;6.866;2023-09-30T04:10:34;5.07;;;2.55;;
25127;SDS011;13107;51.304;6.866;2023-09-30T04:14:36;10.20;;;4.25;;
25127;SDS011;13107;51.304;6.866;2023-09-30T04:18:38;7.22;;;3.62;;
25127;SDS011;13107;51.304;6.866;2023-09-30T04:22:42;9.65;;;3.95;;
25127;SDS011;13107;51.304;6.866;2023-09-30T04:26:49;7.32;;;3.53;;
25127;SDS011;13107;51.304;6.866;2023-09-30T04:30:54;8.10;;;3.78;;
25127;SDS011;13107;51.304;6.866;2023-09-30T04:34:55;8.02;;;3.62;;
25127;SDS011;13107;51.304;6.866;2023-09-30T04:38:57;8.85;;;4.05;;
25127;SDS011;13107;51.304;6.866;2023-09-30T04:43:02;8.30;;;3.87;;
25127;SDS011;13107;51.304;6.866;2023-09-30T04:47:04;9.15;;;3.72;;
25127;SDS011;13107;51.304;6.866;2023-09-30T04:51:06;7.87;;;3.55;;
25127;SDS011;13107;51.304;6.866;2023-09-30T04:55:09;9.80;;;3.53;;
25127;SDS011;13107;51.304;6.866;2023-09-30T04:59:13;9.35;;;3.40;;
25127;SDS011;13107;51.304;6.866;2023-09-30T05:03:15;11.02;;;4.25;;
25127;SDS011;13107;51.304;6.866;2023-09-30T05:07:17;9.23;;;4.07;;
25127;SDS011;13107;51.304;6.866;2023-09-30T05:11:19;9.93;;;4.30;;
25127;SDS011;13107;51.304;6.866;2023-09-30T05:15:20;11.20;;;4.00;;
25127;SDS011;13107;51.304;6.866;2023-09-30T05:19:23;6.95;;;4.03;;
25127;SDS011;13107;51.304;6.866;2023-09-30T05:23:25;11.07;;;4.07;;
25127;SDS011;13107;51.304;6.866;2023-09-30T05:27:27;9.55;;;4.10;;
25127;SDS011;13107;51.304;6.866;2023-09-30T05:31:29;8.20;;;4.05;;
25127;SDS011;13107;51.304;6.866;2023-09-30T05:35:31;9.57;;;4.80;;
25127;SDS011;13107;51.304;6.866;2023-09-30T05:39:33;8.05;;;4.10;;
25127;SDS011;13107;51.304;6.866;2023-09-30T05:43:36;8.15;;;4.18;;
25127;SDS011;13107;51.304;6.866;2023-09-30T05:47:38;9.68;;;4.70;;
25127;SDS011;13107;51.304;6.866;2023-09-30T05:51:41;8.98;;;4.55;;
25127;SDS011;13107;51.304;6.866;2023-09-30T05:55:43;11.38;;;4.60;;
25127;SDS011;13107;51.304;6.866;2023-09-30T05:59:46;15.23;;;4.70;;
25127;SDS011;13107;51.304;6.866;2023-09-30T06:03:48;10.73;;;5.05;;
25127;SDS011;13107;51.304;6.866;2023-09-30T06:07:50;9.27;;;4.68;;
25127;SDS011;13107;51.304;6.866;2023-09-30T06:11:52;10.30;;;5.30;;
25127;SDS011;13107;51.304;6.866;2023-09-30T06:15:54;7.30;;;4.80;;
25127;SDS011;13107;51.304;6.866;2023-09-30T06:19:56;9.15;;;4.80;;
25127;SDS011;13107;51.304;6.866;2023-09-30T06:24:06;11.65;;;5.00;;
25127;SDS011;13107;51.304;6.866;2023-09-30T06:28:08;10.73;;;5.10;;
25127;SDS011;13107;51.304;6.866;2023-09-30T06:32:10;14.20;;;6.60;;
25127;SDS011;13107;51.304;6.866;2023-09-30T06:36:12;10.40;;;6.05;;
25127;SDS011;13107;51.304;6.866;2023-09-30T06:40:15;14.30;;;5.55;;
25127;SDS011;13107;51.304;6.866;2023-09-30T06:44:17;12.25;;;5.90;;
25127;SDS011;13107;51.304;6.866;2023-09-30T06:48:18;14.75;;;7.00;;
25127;SDS011;13107;51.304;6.866;2023-09-30T06:52:20;16.27;;;7.65;;
25127;SDS011;13107;51.304;6.866;2023-09-30T06:56:22;25.55;;;9.43;;
25127;SDS011;13107;51.304;6.866;2023-09-30T07:00:24;22.33;;;10.95;;
25127;SDS011;13107;51.304;6.866;2023-09-30T07:04:26;24.95;;;12.05;;
25127;SDS011;13107;51.304;6.866;2023-09-30T07:08:28;27.17;;;12.77;;
25127;SDS011;13107;51.304;6.866;2023-09-30T07:12:31;29.92;;;14.90;;
25127;SDS011;13107;51.304;6.866;2023-09-30T07:16:33;22.90;;;13.88;;
25127;SDS011;13107;51.304;6.866;2023-09-30T07:20:35;29.33;;;13.10;;
25127;SDS011;13107;51.304;6.866;2023-09-30T07:24:36;23.50;;;12.68;;
25127;SDS011;13107;51.304;6.866;2023-09-30T07:28:40;25.85;;;14.32;;
25127;SDS011;13107;51.304;6.866;2023-09-30T07:32:42;28.85;;;14.32;;
25127;SDS011;13107;51.304;6.866;2023-09-30T07:36:45;26.73;;;14.45;;
25127;SDS011;13107;51.304;6.866;2023-09-30T07:40:47;30.33;;;14.85;;
25127;SDS011;13107;51.304;6.866;2023-09-30T07:44:50;24.35;;;13.98;;
25127;SDS011;13107;51.304;6.866;2023-09-30T07:48:51;31.05;;;15.15;;
25127;SDS011;13107;51.304;6.866;2023-09-30T07:52:54;30.75;;;14.07;;
25127;SDS011;13107;51.304;6.866;2023-09-30T07:56:55;30.90;;;15.30;;
25127;SDS011;13107;51.304;6.866;2023-09-30T08:00:59;27.75;;;15.13;;
25127;SDS011;13107;51.304;6.866;2023-09-30T08:05:01;28.48;;;15.63;;
25127;SDS011;13107;51.304;6.866;2023-09-30T08:09:04;28.52;;;15.88;;
25127;SDS011;13107;51.304;6.866;2023-09-30T08:13:11;30.60;;;16.40;;
25127;SDS011;13107;51.304;6.866;2023-09-30T08:17:12;27.40;;;14.60;;
25127;SDS011;13107;51.304;6.866;2023-09-30T08:21:14;24.83;;;15.63;;
25127;SDS011;13107;51.304;6.866;2023-09-30T08:25:16;29.25;;;14.48;;
25127;SDS011;13107;51.304;6.866;2023-09-30T08:29:17;23.73;;;13.88;;
25127;SDS011;13107;51.304;6.866;2023-09-30T08:33:19;22.50;;;13.20;;
25127;SDS011;13107;51.304;6.866;2023-09-30T08:37:21;27.25;;;13.05;;
25127;SDS011;13107;51.304;6.866;2023-09-30T08:41:24;19.60;;;11.68;;
25127;SDS011;13107;51.304;6.866;2023-09-30T08:45:33;18.58;;;11.88;;
25127;SDS011;13107;51.304;6.866;2023-09-30T08:49:40;20.00;;;11.40;;
25127;SDS011;13107;51.304;6.866;2023-09-30T08:53:45;21.17;;;10.50;;
25127;SDS011;13107;51.304;6.866;2023-09-30T08:57:47;18.98;;;9.50;;
25127;SDS011;13107;51.304;6.866;2023-09-30T09:01:51;14.52;;;9.82;;
25127;SDS011;13107;51.304;6.866;2023-09-30T09:05:56;18.23;;;10.05;;
25127;SDS011;13107;51.304;6.866;2023-09-30T09:10:10;20.42;;;8.70;;
25127;SDS011;13107;51.304;6.866;2023-09-30T09:14:16;16.48;;;6.87;;
25127;SDS011;13107;51.304;6.866;2023-09-30T09:18:33;17.08;;;8.20;;
25127;SDS011;13107;51.304;6.866;2023-09-30T09:22:40;12.40;;;6.75;;
25127;SDS011;13107;51.304;6.866;2023-09-30T09:26:43;11.77;;;6.60;;
25127;SDS011;13107;51.304;6.866;2023-09-30T09:30:45;11.27;;;6.25;;
25127;SDS011;13107;51.304;6.866;2023-09-30T09:34:59;13.32;;;6.75;;
25127;SDS011;13107;51.304;6.866;2023-09-30T09:39:02;10.23;;;5.87;;
25127;SDS011;13107;51.304;6.866;2023-09-30T09:43:04;15.13;;;6.15;;
25127;SDS011;13107;51.304;6.866;2023-09-30T09:47:07;11.05;;;5.40;;
25127;SDS011;13107;51.304;6.866;2023-09-30T09:51:10;11.52;;;5.80;;
25127;SDS011;13107;51.304;6.866;2023-09-30T09:55:15;7.15;;;4.40;;
25127;SDS011;13107;51.304;6.866;2023-09-30T09:59:21;9.70;;;4.68;;
25127;SDS011;13107;51.304;6.866;2023-09-30T10:03:25;7.97;;;4.70;;
25127;SDS011;13107;51.304;6.866;2023-09-30T10:07:27;11.07;;;5.15;;
25127;SDS011;13107;51.304;6.866;2023-09-30T10:11:32;8.98;;;4.70;;
25127;SDS011;13107;51.304;6.866;2023-09-30T10:15:34;9.05;;;4.50;;
25127;SDS011;13107;51.304;6.866;2023-09-30T10:24:42;10.68;;;3.53;;
25127;SDS011;13107;51.304;6.866;2023-09-30T10:36:54;11.27;;;3.87;;
25127;SDS011;13107;51.304;6.866;2023-09-30T10:40:55;12.80;;;4.53;;
25127;SDS011;13107;51.304;6.866;2023-09-30T10:44:57;13.50;;;4.93;;
25127;SDS011;13107;51.304;6.866;2023-09-30T10:49:15;10.45;;;5.00;;
25127;SDS011;13107;51.304;6.866;2023-09-30T10:53:26;9.43;;;4.05;;
25127;SDS011;13107;51.304;6.866;2023-09-30T10:57:29;8.77;;;3.80;;
25127;SDS011;13107;51.304;6.866;2023-09-30T11:01:33;7.62;;;2.80;;
25127;SDS011;13107;51.304;6.866;2023-09-30T11:05:36;7.28;;;3.10;;
25127;SDS011;13107;51.304;6.866;2023-09-30T11:10:00;9.85;;;3.00;;
25127;SDS011;13107;51.304;6.866;2023-09-30T11:14:16;8.52;;;2.70;;
25127;SDS011;13107;51.304;6.866;2023-09-30T11:18:30;8.05;;;2.67;;
25127;SDS011;13107;51.304;6.866;2023-09-30T11:22:33;4.70;;;2.70;;
25127;SDS011;13107;51.304;6.866;2023-09-30T11:26:36;8.25;;;2.60;;
25127;SDS011;13107;51.304;6.866;2023-09-30T11:30:59;9.10;;;3.37;;
25127;SDS011;13107;51.304;6.866;2023-09-30T11:35:02;5.57;;;2.58;;
25127;SDS011;13107;51.304;6.866;2023-09-30T11:39:04;8.65;;;2.12;;
25127;SDS011;13107;51.304;6.866;2023-09-30T11:43:07;5.70;;;2.15;;
25127;SDS011;13107;51.304;6.866;2023-09-30T11:47:13;8.85;;;2.47;;
25127;SDS011;13107;51.304;6.866;2023-09-30T11:51:16;9.55;;;3.08;;
25127;SDS011;13107;51.304;6.866;2023-09-30T11:55:17;7.43;;;3.00;;
25127;SDS011;13107;51.304;6.866;2023-09-30T11:59:22;6.78;;;2.90;;
25127;SDS011;13107;51.304;6.866;2023-09-30T12:03:24;9.75;;;2.85;;
25127;SDS011;13107;51.304;6.866;2023-09-30T12:07:28;6.87;;;2.60;;
25127;SDS011;13107;51.304;6.866;2023-09-30T12:11:30;6.07;;;2.80;;
25127;SDS011;13107;51.304;6.866;2023-09-30T12:15:32;6.53;;;3.08;;
25127;SDS011;13107;51.304;6.866;2023-09-30T12:19:34;6.15;;;2.75;;
25127;SDS011;13107;51.304;6.866;2023-09-30T12:23:36;8.40;;;2.42;;
25127;SDS011;13107;51.304;6.866;2023-09-30T12:27:41;5.47;;;2.50;;
25127;SDS011;13107;51.304;6.866;2023-09-30T12:31:45;7.22;;;2.72;;
25127;SDS011;13107;51.304;6.866;2023-09-30T12:35:54;7.53;;;2.70;;
25127;SDS011;13107;51.304;6.866;2023-09-30T12:39:55;6.90;;;2.47;;
25127;SDS011;13107;51.304;6.866;2023-09-30T12:43:57;5.53;;;2.47;;
25127;SDS011;13107;51.304;6.866;2023-09-30T12:47:59;6.22;;;2.60;;
25127;SDS011;13107;51.304;6.866;2023-09-30T12:52:00;8.18;;;2.50;;
25127;SDS011;13107;51.304;6.866;2023-09-30T12:56:03;7.25;;;2.17;;
25127;SDS011;13107;51.304;6.866;2023-09-30T13:00:04;5.45;;;2.35;;
25127;SDS011;13107;51.304;6.866;2023-09-30T13:04:10;6.80;;;2.58;;
25127;SDS011;13107;51.304;6.866;2023-09-30T13:08:12;7.57;;;2.62;;
25127;SDS011;13107;51.304;6.866;2023-09-30T13:12:14;4.85;;;2.62;;
25127;SDS011;13107;51.304;6.866;2023-09-30T13:16:16;5.50;;;2.15;;
25127;SDS011;13107;51.304;6.866;2023-09-30T13:20:17;6.47;;;2.37;;
25127;SDS011;13107;51.304;6.866;2023-09-30T13:24:19;6.78;;;2.22;;
25127;SDS011;13107;51.304;6.866;2023-09-30T13:28:21;9.88;;;2.90;;
25127;SDS011;13107;51.304;6.866;2023-09-30T13:32:23;5.85;;;2.05;;
25127;SDS011;13107;51.304;6.866;2023-09-30T13:36:24;4.70;;;2.30;;
25127;SDS011;13107;51.304;6.866;2023-09-30T13:40:26;6.43;;;2.00;;
25127;SDS011;13107;51.304;6.866;2023-09-30T13:44:28;4.65;;;2.17;;
25127;SDS011;13107;51.304;6.866;2023-09-30T13:48:30;6.15;;;1.90;;
25127;SDS011;13107;51.304;6.866;2023-09-30T13:52:32;4.75;;;1.75;;
25127;SDS011;13107;51.304;6.866;2023-09-30T13:56:35;3.25;;;1.60;;
25127;SDS011;13107;51.304;6.866;2023-09-30T14:00:39;4.55;;;1.75;;
25127;SDS011;13107;51.304;6.866;2023-09-30T14:04:42;8.45;;;2.33;;
25127;SDS011;13107;51.304;6.866;2023-09-30T14:08:45;6.05;;;2.37;;
25127;SDS011;13107;51.304;6.866;2023-09-30T14:12:47;5.93;;;2.10;;
25127;SDS011;13107;51.304;6.866;2023-09-30T14:16:48;5.75;;;2.03;;
25127;SDS011;13107;51.304;6.866;2023-09-30T14:20:50;4.95;;;1.87;;
25127;SDS011;13107;51.304;6.866;2023-09-30T14:24:52;6.12;;;2.08;;
25127;SDS011;13107;51.304;6.866;2023-09-30T14:28:54;8.00;;;2.42;;
25127;SDS011;13107;51.304;6.866;2023-09-30T14:32:56;5.60;;;1.77;;
25127;SDS011;13107;51.304;6.866;2023-09-30T14:36:58;5.70;;;2.20;;
25127;SDS011;13107;51.304;6.866;2023-09-30T14:41:00;6.03;;;2.03;;
25127;SDS011;13107;51.304;6.866;2023-09-30T14:45:01;8.57;;;2.70;;
25127;SDS011;13107;51.304;6.866;2023-09-30T14:49:03;7.80;;;2.35;;
25127;SDS011;13107;51.304;6.866;2023-09-30T14:53:07;5.50;;;2.03;;
25127;SDS011;13107;51.304;6.866;2023-09-30T14:57:09;5.03;;;2.03;;
25127;SDS011;13107;51.304;6.866;2023-09-30T15:01:11;3.83;;;1.77;;
25127;SDS011;13107;51.304;6.866;2023-09-30T15:05:14;7.85;;;2.05;;
25127;SDS011;13107;51.304;6.866;2023-09-30T15:09:15;6.22;;;1.98;;
25127;SDS011;13107;51.304;6.866;2023-09-30T15:13:17;5.93;;;2.62;;
25127;SDS011;13107;51.304;6.866;2023-09-30T15:17:19;4.72;;;1.80;;
25127;SDS011;13107;51.304;6.866;2023-09-30T15:21:21;5.90;;;2.05;;
25127;SDS011;13107;51.304;6.866;2023-09-30T15:25:22;4.32;;;2.03;;
25127;SDS011;13107;51.304;6.866;2023-09-30T15:29:24;5.35;;;1.95;;
25127;SDS011;13107;51.304;6.866;2023-09-30T15:33:27;5.87;;;1.85;;
25127;SDS011;13107;51.304;6.866;2023-09-30T15:37:29;5.30;;;2.00;;
25127;SDS011;13107;51.304;6.866;2023-09-30T15:41:31;5.82;;;2.37;;
25127;SDS011;13107;51.304;6.866;2023-09-30T15:45:32;4.53;;;2.10;;
25127;SDS011;13107;51.304;6.866;2023-09-30T15:49:37;5.43;;;2.25;;
25127;SDS011;13107;51.304;6.866;2023-09-30T15:53:39;5.35;;;2.72;;
25127;SDS011;13107;51.304;6.866;2023-09-30T15:57:40;4.40;;;1.85;;
25127;SDS011;13107;51.304;6.866;2023-09-30T16:01:44;5.93;;;2.00;;
25127;SDS011;13107;51.304;6.866;2023-09-30T16:05:45;4.47;;;1.75;;
25127;SDS011;13107;51.304;6.866;2023-09-30T16:09:47;3.80;;;2.05;;
25127;SDS011;13107;51.304;6.866;2023-09-30T16:13:49;3.90;;;1.87;;
25127;SDS011;13107;51.304;6.866;2023-09-30T16:17:53;4.68;;;2.28;;
25127;SDS011;13107;51.304;6.866;2023-09-30T16:21:55;9.32;;;2.97;;
25127;SDS011;13107;51.304;6.866;2023-09-30T16:25:57;5.80;;;2.58;;
25127;SDS011;13107;51.304;6.866;2023-09-30T16:29:59;4.72;;;2.22;;
25127;SDS011;13107;51.304;6.866;2023-09-30T16:34:01;6.60;;;2.30;;
25127;SDS011;13107;51.304;6.866;2023-09-30T16:38:02;6.20;;;2.60;;
25127;SDS011;13107;51.304;6.866;2023-09-30T16:42:04;6.47;;;2.90;;
25127;SDS011;13107;51.304;6.866;2023-09-30T16:46:06;6.80;;;2.75;;
25127;SDS011;13107;51.304;6.866;2023-09-30T16:50:08;5.68;;;2.78;;
25127;SDS011;13107;51.304;6.866;2023-09-30T16:54:10;4.43;;;2.58;;
25127;SDS011;13107;51.304;6.866;2023-09-30T16:58:12;4.53;;;2.50;;
25127;SDS011;13107;51.304;6.866;2023-09-30T17:02:14;7.35;;;2.40;;
25127;SDS011;13107;51.304;6.866;2023-09-30T17:06:18;6.37;;;2.58;;
25127;SDS011;13107;51.304;6.866;2023-09-30T17:10:20;4.95;;;2.22;;
25127;SDS011;13107;51.304;6.866;2023-09-30T17:14:22;4.05;;;2.22;;
25127;SDS011;13107;51.304;6.866;2023-09-30T17:18:23;4.25;;;2.30;;
25127;SDS011;13107;51.304;6.866;2023-09-30T17:22:25;7.50;;;2.30;;
25127;SDS011;13107;51.304;6.866;2023-09-30T17:26:27;5.12;;;2.50;;
25127;SDS011;13107;51.304;6.866;2023-09-30T17:30:30;4.05;;;2.03;;
25127;SDS011;13107;51.304;6.866;2023-09-30T17:34:42;3.70;;;2.15;;
25127;SDS011;13107;51.304;6.866;2023-09-30T17:38:44;6.12;;;2.60;;
25127;SDS011;13107;51.304;6.866;2023-09-30T17:42:46;4.57;;;2.70;;
25127;SDS011;13107;51.304;6.866;2023-09-30T17:46:48;5.95;;;3.35;;
25127;SDS011;13107;51.304;6.866;2023-09-30T17:50:50;6.12;;;2.83;;
25127;SDS011;13107;51.304;6.866;2023-09-30T17:54:51;5.37;;;2.83;;
25127;SDS011;13107;51.304;6.866;2023-09-30T17:58:53;4.25;;;2.67;;
25127;SDS011;13107;51.304;6.866;2023-09-30T18:02:56;5.65;;;2.70;;
25127;SDS011;13107;51.304;6.866;2023-09-30T18:06:58;7.05;;;2.50;;
25127;SDS011;13107;51.304;6.866;2023-09-30T18:11:00;4.72;;;2.90;;
25127;SDS011;13107;51.304;6.866;2023-09-30T18:15:03;6.00;;;3.00;;
25127;SDS011;13107;51.304;6.866;2023-09-30T18:19:04;6.28;;;2.60;;
25127;SDS011;13107;51.304;6.866;2023-09-30T18:23:06;4.70;;;2.58;;
25127;SDS011;13107;51.304;6.866;2023-09-30T18:27:08;6.50;;;2.95;;
25127;SDS011;13107;51.304;6.866;2023-09-30T18:31:11;9.88;;;3.22;;
25127;SDS011;13107;51.304;6.866;2023-09-30T18:35:18;6.50;;;2.78;;
25127;SDS011;13107;51.304;6.866;2023-09-30T18:39:20;4.07;;;1.98;;
25127;SDS011;13107;51.304;6.866;2023-09-30T18:43:26;5.28;;;2.78;;
25127;SDS011;13107;51.304;6.866;2023-09-30T18:47:30;5.32;;;2.60;;
25127;SDS011;13107;51.304;6.866;2023-09-30T18:51:32;5.10;;;2.22;;
25127;SDS011;13107;51.304;6.866;2023-09-30T18:55:34;6.57;;;2.92;;
25127;SDS011;13107;51.304;6.866;2023-09-30T18:59:38;5.43;;;2.83;;
25127;SDS011;13107;51.304;6.866;2023-09-30T19:03:40;7.68;;;2.80;;
25127;SDS011;13107;51.304;6.866;2023-09-30T19:07:42;12.20;;;3.47;;
25127;SDS011;13107;51.304;6.866;2023-09-30T19:11:44;4.97;;;2.70;;
25127;SDS011;13107;51.304;6.866;2023-09-30T19:15:47;6.97;;;3.30;;
25127;SDS011;13107;51.304;6.866;2023-09-30T19:19:49;5.47;;;3.20;;
25127;SDS011;13107;51.304;6.866;2023-09-30T19:23:50;5.20;;;3.00;;
25127;SDS011;13107;51.304;6.866;2023-09-30T19:27:52;5.07;;;2.87;;
25127;SDS011;13107;51.304;6.866;2023-09-30T19:31:54;7.43;;;2.67;;
25127;SDS011;13107;51.304;6.866;2023-09-30T19:35:56;5.75;;;3.42;;
25127;SDS011;13107;51.304;6.866;2023-09-30T19:39:57;7.75;;;3.33;;
25127;SDS011;13107;51.304;6.866;2023-09-30T19:43:59;4.87;;;2.65;;
25127;SDS011;13107;51.304;6.866;2023-09-30T19:48:01;5.35;;;2.87;;
25127;SDS011;13107;51.304;6.866;2023-09-30T19:52:03;8.73;;;2.78;;
25127;SDS011;13107;51.304;6.866;2023-09-30T19:56:06;5.20;;;2.60;;
25127;SDS011;13107;51.304;6.866;2023-09-30T20:00:11;6.43;;;2.90;;
25127;SDS011;13107;51.304;6.866;2023-09-30T20:04:17;5.95;;;3.03;;
25127;SDS011;13107;51.304;6.866;2023-09-30T20:08:19;5.32;;;3.00;;
25127;SDS011;13107;51.304;6.866;2023-09-30T20:12:21;6.47;;;3.60;;
25127;SDS011;13107;51.304;6.866;2023-09-30T20:16:24;8.52;;;3.30;;
25127;SDS011;13107;51.304;6.866;2023-09-30T20:20:26;6.32;;;3.47;;
25127;SDS011;13107;51.304;6.866;2023-09-30T20:24:28;6.20;;;3.47;;
25127;SDS011;13107;51.304;6.866;2023-09-30T20:28:32;5.68;;;3.00;;
25127;SDS011;13107;51.304;6.866;2023-09-30T20:32:34;7.05;;;3.85;;
25127;SDS011;13107;51.304;6.866;2023-09-30T20:36:36;10.48;;;5.10;;
25127;SDS011;13107;51.304;6.866;2023-09-30T20:40:38;9.77;;;5.87;;
25127;SDS011;13107;51.304;6.866;2023-09-30T20:44:43;10.23;;;5.95;;
25127;SDS011;13107;51.304;6.866;2023-09-30T20:48:45;16.35;;;6.95;;
25127;SDS011;13107;51.304;6.866;2023-09-30T20:52:49;9.35;;;5.85;;
25127;SDS011;13107;51.304;6.866;2023-09-30T20:56:54;8.98;;;5.30;;
25127;SDS011;13107;51.304;6.866;2023-09-30T21:00:56;9.35;;;5.90;;
25127;SDS011;13107;51.304;6.866;2023-09-30T21:04:59;8.32;;;5.50;;
25127;SDS011;13107;51.304;6.866;2023-09-30T21:09:00;10.43;;;5.47;;
25127;SDS011;13107;51.304;6.866;2023-09-30T21:13:02;8.15;;;4.22;;
25127;SDS011;13107;51.304;6.866;2023-09-30T21:17:04;8.20;;;4.50;;
25127;SDS011;13107;51.304;6.866;2023-09-30T21:21:09;6.32;;;4.80;;
25127;SDS011;13107;51.304;6.866;2023-09-30T21:25:11;7.87;;;4.25;;
25127;SDS011;13107;51.304;6.866;2023-09-30T21:29:13;8.25;;;4.70;;
25127;SDS011;13107;51.304;6.866;2023-09-30T21:33:15;7.90;;;4.30;;
25127;SDS011;13107;51.304;6.866;2023-09-30T21:37:17;8.23;;;3.85;;
25127;SDS011;13107;51.304;6.866;2023-09-30T21:41:19;7.00;;;4.40;;
25127;SDS011;13107;51.304;6.866;2023-09-30T21:45:21;6.85;;;3.45;;
25127;SDS011;13107;51.304;6.866;2023-09-30T21:49:23;6.93;;;3.95;;
25127;SDS011;13107;51.304;6.866;2023-09-30T21:53:24;10.35;;;4.32;;
25127;SDS011;13107;51.304;6.866;2023-09-30T21:57:26;7.55;;;4.80;;
25127;SDS011;13107;51.304;6.866;2023-09-30T22:01:28;6.43;;;3.62;;
25127;SDS011;13107;51.304;6.866;2023-09-30T22:05:33;6.90;;;4.30;;
25127;SDS011;13107;51.304;6.866;2023-09-30T22:09:35;7.85;;;4.30;;
25127;SDS011;13107;51.304;6.866;2023-09-30T22:13:37;6.32;;;4.07;;
25127;SDS011;13107;51.304;6.866;2023-09-30T22:17:39;6.95;;;3.87;;
25127;SDS011;13107;51.304;6.866;2023-09-30T22:21:41;8.07;;;4.03;;
25127;SDS011;13107;51.304;6.866;2023-09-30T22:25:43;8.18;;;3.90;;
25127;SDS011;13107;51.304;6.866;2023-09-30T22:29:44;6.30;;;4.32;;
25127;SDS011;13107;51.304;6.866;2023-09-30T22:33:46;6.90;;;3.72;;
25127;SDS011;13107;51.304;6.866;2023-09-30T22:37:48;9.32;;;4.35;;
25127;SDS011;13107;51.304;6.866;2023-09-30T22:41:50;8.73;;;4.60;;
25127;SDS011;13107;51.304;6.866;2023-09-30T22:45:52;6.05;;;4.12;;
25127;SDS011;13107;51.304;6.866;2023-09-30T22:49:53;6.30;;;4.47;;
25127;SDS011;13107;51.304;6.866;2023-09-30T22:53:57;8.50;;;4.87;;
25127;SDS011;13107;51.304;6.866;2023-09-30T22:57:58;7.72;;;5.03;;
25127;SDS011;13107;51.304;6.866;2023-09-30T23:02:01;7.60;;;5.15;;
25127;SDS011;13107;51.304;6.866;2023-09-30T23:06:02;10.05;;;5.97;;
25127;SDS011;13107;51.304;6.866;2023-09-30T23:10:06;10.00;;;5.53;;
25127;SDS011;13107;51.304;6.866;2023-09-30T23:14:09;14.25;;;5.72;;
25127;SDS011;13107;51.304;6.866;2023-09-30T23:18:11;10.82;;;5.62;;
25127;SDS011;13107;51.304;6.866;2023-09-30T23:22:13;8.00;;;5.05;;
25127;SDS011;13107;51.304;6.866;2023-09-30T23:26:16;13.70;;;5.80;;
25127;SDS011;13107;51.304;6.866;2023-09-30T23:30:20;9.13;;;5.57;;
25127;SDS011;13107;51.304;6.866;2023-09-30T23:34:24;10.13;;;5.37;;
25127;SDS011;13107;51.304;6.866;2023-09-30T23:38:26;8.73;;;5.62;;
25127;SDS011;13107;51.304;6.866;2023-09-30T23:42:29;7.30;;;5.05;;
25127;SDS011;13107;51.304;6.866;2023-09-30T23:46:30;9.82;;;5.50;;
25127;SDS011;13107;51.304;6.866;2023-09-30T23:50:33;11.50;;;6.45;;
25127;SDS011;13107;51.304;6.866;2023-09-30T23:54:35;11.15;;;6.70;;
25127;SDS011;13107;51.304;6.866;2023-09-30T23:58:37;11.27;;;6.65;;
